createdAt,value
2019-05-11T00:08:33.841Z,5.53
2019-05-11T00:18:34.696Z,1.47
2019-05-11T00:28:33.968Z,1.60
2019-05-11T00:38:33.576Z,1.83
2019-05-11T00:48:34.575Z,1.47
2019-05-11T00:58:35.588Z,1.47
2019-05-11T01:08:34.734Z,1.33
2019-05-11T01:18:33.987Z,1.40
2019-05-11T01:28:33.172Z,1.53
2019-05-11T01:38:32.405Z,2.10
2019-05-11T01:48:31.652Z,1.70
2019-05-11T01:58:32.169Z,1.60
2019-05-11T02:08:31.635Z,1.90
2019-05-11T02:18:31.598Z,1.60
2019-05-11T02:28:31.190Z,1.47
2019-05-11T02:38:30.343Z,1.60
2019-05-11T02:48:30.151Z,1.30
2019-05-11T02:58:30.057Z,1.30
2019-05-11T03:08:29.683Z,1.53
2019-05-11T03:18:30.238Z,1.60
2019-05-11T03:28:30.007Z,2.13
2019-05-11T03:38:30.484Z,4.30
2019-05-11T03:48:29.646Z,1.90
2019-05-11T03:58:28.922Z,1.50
2019-05-11T04:08:28.031Z,1.80
2019-05-11T04:18:28.748Z,1.60
2019-05-11T04:28:31.537Z,1.60
2019-05-11T04:38:31.308Z,1.90
2019-05-11T04:48:30.476Z,2.10
2019-05-11T04:58:30.211Z,4.53
2019-05-11T05:08:31.381Z,1.80
2019-05-11T05:18:31.070Z,1.70
2019-05-11T05:28:45.830Z,1.90
2019-05-11T05:38:45.069Z,2.40
2019-05-11T05:48:48.732Z,6.37
2019-05-11T05:58:49.644Z,2.07
2019-05-11T06:08:50.109Z,1.87
2019-05-11T06:18:50.647Z,2.10
2019-05-11T06:28:50.521Z,3.00
2019-05-11T06:38:51.178Z,1.60
2019-05-11T06:48:50.758Z,2.10
2019-05-11T06:58:50.374Z,2.10
2019-05-11T07:08:51.724Z,3.93
2019-05-11T07:18:52.277Z,3.00
2019-05-11T07:28:52.198Z,2.20
2019-05-11T07:38:52.163Z,2.40
2019-05-11T07:48:51.964Z,2.20
2019-05-11T07:58:51.704Z,2.47
2019-05-11T08:08:52.550Z,2.30
2019-05-11T08:18:52.668Z,2.03
2019-05-11T08:28:52.322Z,1.70
2019-05-11T08:38:52.503Z,1.87
2019-05-11T08:48:52.369Z,0.90
2019-05-11T08:58:55.302Z,1.00
2019-05-11T09:08:54.734Z,1.23
2019-05-11T09:18:58.134Z,1.70
2019-05-11T09:28:58.028Z,1.80
2019-05-11T09:38:58.120Z,1.50
2019-05-11T09:48:59.008Z,2.10
2019-05-11T09:58:58.275Z,2.80
2019-05-11T10:08:58.049Z,3.30
2019-05-11T10:18:59.185Z,3.03
2019-05-11T10:28:58.487Z,3.50
2019-05-11T10:38:58.667Z,3.33
2019-05-11T10:48:58.743Z,2.67
2019-05-11T10:58:58.577Z,3.60
2019-05-11T11:08:57.918Z,5.10
2019-05-11T11:18:58.772Z,6.33
2019-05-11T11:28:58.141Z,6.57
2019-05-11T11:38:58.346Z,6.87
2019-05-11T11:48:57.993Z,6.03
2019-05-11T11:58:57.986Z,4.97
2019-05-11T12:08:55.324Z,3.20
2019-05-11T12:18:57.682Z,4.80
2019-05-11T12:28:57.649Z,3.50
2019-05-11T13:02:21.913Z,3.33
2019-05-11T13:12:23.341Z,3.17
2019-05-11T13:22:24.477Z,1.70
2019-05-11T13:32:24.907Z,2.33
2019-05-11T13:42:27.593Z,1.60
2019-05-11T13:52:24.779Z,1.50
2019-05-11T14:02:24.856Z,1.70
2019-05-11T14:12:24.112Z,1.50
2019-05-11T14:22:23.720Z,1.93
2019-05-11T14:32:22.961Z,1.10
2019-05-11T14:42:22.535Z,1.37
2019-05-11T14:52:22.190Z,2.27
2019-05-11T15:02:39.624Z,1.80
2019-05-11T15:12:39.301Z,2.10
2019-05-11T15:22:39.598Z,1.90
2019-05-11T15:33:00.920Z,2.37
2019-05-11T15:43:00.975Z,2.50
2019-05-11T15:53:01.850Z,2.30
2019-05-11T16:03:01.299Z,2.37
2019-05-11T16:13:01.856Z,5.47
2019-05-11T16:23:01.489Z,2.53
2019-05-11T16:33:01.593Z,1.40
2019-05-11T16:43:01.629Z,0.90
2019-05-11T16:53:01.317Z,0.90
2019-05-11T17:03:01.194Z,0.60
2019-05-11T17:13:01.840Z,0.90
2019-05-11T17:23:01.669Z,1.10
2019-05-11T17:33:01.017Z,0.67
2019-05-11T17:43:01.254Z,1.10
2019-05-11T17:53:02.161Z,2.03
2019-05-11T18:03:01.873Z,1.23
2019-05-11T18:13:04.294Z,0.40
2019-05-11T18:23:03.368Z,0.90
2019-05-11T18:33:03.828Z,0.73
2019-05-11T18:43:04.410Z,0.40
2019-05-11T18:53:04.556Z,0.83
2019-05-11T19:03:05.139Z,0.53
2019-05-11T19:13:05.360Z,0.30
2019-05-11T19:23:05.050Z,0.70
2019-05-11T19:33:05.183Z,0.80
2019-05-11T19:43:07.698Z,0.67
2019-05-11T19:53:05.611Z,0.60
2019-05-11T20:03:06.116Z,0.67
2019-05-11T20:13:07.983Z,0.90
2019-05-11T20:23:07.878Z,0.80
2019-05-11T20:33:08.702Z,0.77
2019-05-11T20:43:07.980Z,0.60
2019-05-11T20:53:13.788Z,1.10
2019-05-11T21:03:14.748Z,0.80
2019-05-11T21:13:15.106Z,0.57
2019-05-11T21:23:15.466Z,0.90
2019-05-11T21:33:15.341Z,0.57
2019-05-11T21:43:15.385Z,0.70
2019-05-11T21:53:18.302Z,0.90
2019-05-11T22:03:15.971Z,0.70
2019-05-11T22:13:18.098Z,0.60
2019-05-11T22:23:17.649Z,0.70
2019-05-11T22:33:17.783Z,0.60
2019-05-11T22:43:18.265Z,0.50
2019-05-11T22:53:18.830Z,0.70
2019-05-11T23:03:23.296Z,0.73
2019-05-11T23:13:24.049Z,0.80
2019-05-11T23:23:24.226Z,0.70
2019-05-11T23:33:24.141Z,0.60
2019-05-11T23:43:23.758Z,0.60
2019-05-11T23:53:23.919Z,0.60
